< < Back
Terminal Aerodrome Forecast


Current Version              Previous Versions:   1  2  3  4  5  6  7  8  9  

Terminal Aerodrome Forecast

400
FTUS42 KJAX 270524
TAFSSI
TAF
KSSI 270524Z 2706/2806 24006KT P6SM SKC
     FM271800 16009KT P6SM FEW050
     FM280100 20007KT P6SM SKC=

Latest METAR

245
SAUS70 KWBC 271300 RRI
MTRSSI
METAR KSSI 271253Z AUTO 28005KT 10SM CLR 29/23 A3009 RMK AO2 SLP190
T02890228


USA.gov is the U.S. government's official web portal to all federal, state and local government web resources and services.